createdAt,value
2018-06-28T00:00:02.884Z,11.80
2018-06-28T00:02:31.793Z,12.00
2018-06-28T00:05:37.522Z,11.67
2018-06-28T00:08:06.404Z,12.40
2018-06-28T00:10:35.258Z,11.93
2018-06-28T00:13:04.147Z,12.20
2018-06-28T00:15:32.993Z,12.27
2018-06-28T00:18:01.848Z,13.72
2018-06-28T00:20:30.707Z,11.77
2018-06-28T00:22:59.570Z,10.90
2018-06-28T00:25:28.448Z,12.23
2018-06-28T00:27:58.973Z,11.47
2018-06-28T00:30:27.825Z,11.97
2018-06-28T00:32:56.698Z,12.37
2018-06-28T00:35:25.549Z,11.90
2018-06-28T00:37:54.408Z,12.47
2018-06-28T00:40:23.281Z,11.00
2018-06-28T00:42:52.182Z,12.90
2018-06-28T00:45:21.084Z,11.73
2018-06-28T00:47:50.015Z,11.70
2018-06-28T00:50:19.103Z,11.73
2018-06-28T00:52:47.956Z,12.10
2018-06-28T00:55:16.825Z,12.03
2018-06-28T00:57:45.674Z,11.90
2018-06-28T01:00:14.562Z,11.93
2018-06-28T01:02:43.410Z,12.97
2018-06-28T01:05:12.270Z,12.27
2018-06-28T01:07:41.121Z,12.03
2018-06-28T01:10:10.124Z,12.73
2018-06-28T01:13:42.796Z,12.40
2018-06-28T01:16:11.691Z,12.37
2018-06-28T01:18:40.553Z,12.73
2018-06-28T01:21:09.410Z,13.10
2018-06-28T01:23:38.249Z,13.40
2018-06-28T01:26:07.123Z,13.17
2018-06-28T01:28:35.961Z,14.30
2018-06-28T01:31:04.857Z,14.07
2018-06-28T01:33:33.838Z,13.87
2018-06-28T01:36:06.312Z,13.47
2018-06-28T01:38:35.173Z,13.43
2018-06-28T01:41:04.036Z,14.33
2018-06-28T01:43:46.700Z,13.83
2018-06-28T01:46:16.443Z,15.30
2018-06-28T01:48:45.558Z,14.47
2018-06-28T01:51:14.419Z,14.03
2018-06-28T01:53:43.264Z,14.20
2018-06-28T01:56:12.189Z,14.33
2018-06-28T01:58:41.059Z,14.80
2018-06-28T02:01:09.947Z,14.70
2018-06-28T02:03:38.839Z,15.63
2018-06-28T02:06:07.733Z,14.80
2018-06-28T02:08:36.631Z,14.57
2018-06-28T02:11:05.477Z,14.90
2018-06-28T02:13:34.399Z,14.70
2018-06-28T02:16:03.273Z,17.75
2018-06-28T02:18:35.165Z,15.33
2018-06-28T02:21:04.033Z,14.80
2018-06-28T02:23:32.938Z,15.50
2018-06-28T02:26:01.821Z,15.27
2018-06-28T02:28:30.710Z,15.97
2018-06-28T02:30:59.606Z,14.70
2018-06-28T02:33:28.512Z,15.77
2018-06-28T02:35:57.386Z,16.17
2018-06-28T02:38:26.278Z,16.30
2018-06-28T02:40:55.292Z,15.80
2018-06-28T02:43:24.226Z,16.07
2018-06-28T02:45:53.154Z,16.50
2018-06-28T02:48:22.055Z,16.70
2018-06-28T02:50:50.934Z,16.70
2018-06-28T02:53:19.823Z,16.93
2018-06-28T02:55:48.711Z,16.63
2018-06-28T02:58:17.585Z,17.13
2018-06-28T03:00:46.510Z,18.40
2018-06-28T03:03:15.493Z,16.87
2018-06-28T03:05:44.402Z,18.10
2018-06-28T03:08:13.255Z,18.97
2018-06-28T03:10:42.139Z,17.60
2018-06-28T03:13:10.994Z,16.37
2018-06-28T03:15:39.838Z,18.07
2018-06-28T03:18:08.743Z,19.20
2018-06-28T03:20:37.614Z,17.60
2018-06-28T03:23:06.506Z,17.53
2018-06-28T03:25:35.421Z,18.13
2018-06-28T03:28:04.294Z,17.73
2018-06-28T03:30:33.173Z,18.33
2018-06-28T03:33:02.031Z,19.17
2018-06-28T03:35:30.878Z,23.02
2018-06-28T03:37:59.878Z,19.20
2018-06-28T03:40:28.633Z,18.93
2018-06-28T03:42:57.521Z,18.97
2018-06-28T03:45:26.398Z,19.97
2018-06-28T03:47:55.285Z,19.13
2018-06-28T03:50:24.206Z,22.22
2018-06-28T03:52:53.091Z,24.40
2018-06-28T03:55:21.938Z,20.10
2018-06-28T03:57:50.782Z,23.92
2018-06-28T04:00:19.687Z,20.57
2018-06-28T04:02:48.526Z,19.87
2018-06-28T04:05:17.387Z,19.87
2018-06-28T04:07:46.239Z,19.30
2018-06-28T04:10:15.128Z,19.77
2018-06-28T04:12:44.009Z,20.50
2018-06-28T04:15:13.136Z,19.77
2018-06-28T04:17:41.999Z,19.93
2018-06-28T04:20:10.898Z,18.40
2018-06-28T04:22:39.765Z,19.83
2018-06-28T04:25:08.633Z,25.20
2018-06-28T04:27:37.534Z,19.83
2018-06-28T04:30:06.475Z,20.50
2018-06-28T04:32:35.468Z,19.47
2018-06-28T04:35:04.349Z,20.27
2018-06-28T04:37:33.190Z,19.83
2018-06-28T04:40:02.050Z,20.90
2018-06-28T04:42:30.908Z,20.40
2018-06-28T04:44:59.796Z,19.87
2018-06-28T04:47:28.666Z,19.73
2018-06-28T04:49:57.586Z,20.23
2018-06-28T04:52:26.362Z,19.93
2018-06-28T04:54:55.368Z,19.37
2018-06-28T04:57:24.226Z,20.27
2018-06-28T04:59:53.067Z,20.87
2018-06-28T05:02:21.959Z,24.75
2018-06-28T05:04:50.833Z,21.43
2018-06-28T05:07:19.755Z,21.13
2018-06-28T05:09:48.586Z,20.33
2018-06-28T05:12:17.468Z,22.00
2018-06-28T05:14:46.363Z,21.07
2018-06-28T05:18:10.402Z,20.73
2018-06-28T05:20:39.260Z,20.97
2018-06-28T05:23:08.136Z,19.57
2018-06-28T05:25:37.005Z,20.13
2018-06-28T05:28:05.903Z,21.07
2018-06-28T05:30:34.754Z,19.73
2018-06-28T05:33:03.648Z,24.05
2018-06-28T05:35:32.502Z,23.70
2018-06-28T05:38:01.389Z,19.93
2018-06-28T05:40:30.444Z,20.00
2018-06-28T05:42:59.268Z,18.80
2018-06-28T05:45:28.160Z,19.00
2018-06-28T05:47:57.033Z,17.90
2018-06-28T05:50:25.873Z,17.90
2018-06-28T05:52:54.720Z,20.30
2018-06-28T05:55:23.595Z,17.10
2018-06-28T05:57:52.429Z,18.65
2018-06-28T06:00:21.294Z,16.97
2018-06-28T06:02:51.174Z,14.90
2018-06-28T06:05:20.035Z,13.77
2018-06-28T06:07:48.909Z,15.07
2018-06-28T06:10:17.773Z,14.57
2018-06-28T06:12:46.602Z,13.60
2018-06-28T06:15:15.529Z,13.20
2018-06-28T06:17:44.333Z,12.50
2018-06-28T06:20:13.273Z,12.03
2018-06-28T06:22:42.095Z,11.30
2018-06-28T06:28:48.395Z,10.03
2018-06-28T06:31:17.291Z,9.97
2018-06-28T06:33:46.144Z,9.87
2018-06-28T06:36:15.018Z,8.33
2018-06-28T06:38:43.854Z,9.68
2018-06-28T06:41:12.758Z,9.10
2018-06-28T06:43:41.576Z,7.72
2018-06-28T06:46:10.730Z,8.50
2018-06-28T06:48:42.197Z,7.47
2018-06-28T06:51:11.062Z,8.20
2018-06-28T06:53:39.942Z,8.08
2018-06-28T06:56:08.817Z,7.05
2018-06-28T06:58:37.677Z,7.30
2018-06-28T07:01:06.536Z,6.90
2018-06-28T07:03:35.411Z,6.12
2018-06-28T07:06:04.258Z,6.30
2018-06-28T07:08:33.082Z,6.35
2018-06-28T07:11:02.038Z,5.80
2018-06-28T07:13:30.889Z,5.15
2018-06-28T07:15:59.973Z,5.85
2018-06-28T07:18:28.785Z,5.30
2018-06-28T07:20:57.632Z,5.17
2018-06-28T07:23:26.888Z,5.20
2018-06-28T07:25:56.557Z,5.85
2018-06-28T07:28:25.673Z,5.40
2018-06-28T07:30:54.701Z,5.42
2018-06-28T07:33:27.011Z,5.37
2018-06-28T07:35:56.073Z,4.83
2018-06-28T07:38:25.029Z,4.67
2018-06-28T07:40:53.908Z,4.72
2018-06-28T07:43:22.861Z,4.92
2018-06-28T07:45:51.753Z,3.60
2018-06-28T07:48:20.655Z,3.40
2018-06-28T07:50:49.517Z,3.90
2018-06-28T07:53:18.395Z,3.92
2018-06-28T07:55:50.194Z,4.20
2018-06-28T07:58:19.062Z,4.00
2018-06-28T08:00:47.935Z,3.75
2018-06-28T08:03:16.760Z,3.65
2018-06-28T08:05:45.698Z,3.33
2018-06-28T08:08:17.673Z,2.95
2018-06-28T08:10:50.518Z,3.30
2018-06-28T08:13:21.506Z,2.22
2018-06-28T08:15:59.343Z,2.60
2018-06-28T08:18:29.124Z,2.80
2018-06-28T08:20:58.917Z,2.62
2018-06-28T08:23:28.805Z,2.47
2018-06-28T08:25:57.655Z,2.20
2018-06-28T08:28:26.602Z,2.10
2018-06-28T08:30:55.535Z,2.30
2018-06-28T08:33:24.441Z,2.10
2018-06-28T08:35:53.478Z,2.12
2018-06-28T08:38:22.391Z,1.98
2018-06-28T08:40:51.244Z,1.80
2018-06-28T08:43:20.135Z,2.12
2018-06-28T08:45:48.988Z,1.85
2018-06-28T08:48:17.869Z,2.50
2018-06-28T08:50:46.778Z,2.30
2018-06-28T08:53:15.629Z,2.00
2018-06-28T08:55:44.501Z,2.30
2018-06-28T08:59:07.803Z,2.10
2018-06-28T09:01:36.722Z,1.90
2018-06-28T09:04:05.669Z,2.10
2018-06-28T09:06:34.577Z,2.20
2018-06-28T09:09:03.591Z,2.47
2018-06-28T09:11:32.465Z,2.58
2018-06-28T09:14:01.369Z,3.02
2018-06-28T09:16:30.205Z,2.92
2018-06-28T09:18:59.065Z,2.25
2018-06-28T09:21:28.030Z,2.60
2018-06-28T09:23:56.917Z,3.27
2018-06-28T09:26:26.151Z,3.02
2018-06-28T09:28:55.026Z,2.80
2018-06-28T09:31:23.920Z,3.72
2018-06-28T09:33:52.744Z,3.60
2018-06-28T09:36:21.599Z,3.90
2018-06-28T09:38:50.482Z,3.70
2018-06-28T09:41:19.370Z,3.80
2018-06-28T09:43:48.224Z,3.85
2018-06-28T09:46:17.068Z,3.52
2018-06-28T09:48:46.128Z,3.67
2018-06-28T09:51:14.885Z,3.58
2018-06-28T09:53:43.776Z,3.80
2018-06-28T09:56:12.600Z,3.90
2018-06-28T09:58:41.531Z,3.98
2018-06-28T10:01:10.378Z,4.25
2018-06-28T10:03:39.600Z,3.85
2018-06-28T10:06:08.441Z,3.67
2018-06-28T10:08:37.311Z,3.85
2018-06-28T10:11:06.299Z,3.77
2018-06-28T10:13:35.145Z,3.75
2018-06-28T10:16:04.029Z,4.05
2018-06-28T10:18:32.907Z,3.80
2018-06-28T10:21:01.801Z,3.67
2018-06-28T10:23:30.755Z,3.80
2018-06-28T10:26:02.449Z,3.77
2018-06-28T10:28:31.303Z,3.67
2018-06-28T10:31:00.230Z,3.52
2018-06-28T10:33:29.026Z,3.77
2018-06-28T10:35:57.965Z,3.85
2018-06-28T10:38:28.309Z,3.58
2018-06-28T10:40:57.187Z,3.75
2018-06-28T10:43:26.213Z,3.50
2018-06-28T10:45:55.139Z,4.17
2018-06-28T10:48:23.980Z,4.80
2018-06-28T10:50:52.860Z,4.17
2018-06-28T10:53:21.693Z,4.30
2018-06-28T10:55:50.683Z,4.35
2018-06-28T10:58:19.579Z,4.55
2018-06-28T11:00:48.444Z,3.83
2018-06-28T11:03:17.290Z,3.70
2018-06-28T11:05:46.138Z,3.80
2018-06-28T11:08:15.085Z,4.10
2018-06-28T11:10:43.967Z,3.85
2018-06-28T11:13:12.801Z,4.10
2018-06-28T11:15:41.634Z,3.50
2018-06-28T11:18:10.812Z,3.58
2018-06-28T11:20:39.681Z,3.77
2018-06-28T11:23:09.080Z,3.95
2018-06-28T11:25:38.002Z,3.60
2018-06-28T11:28:06.902Z,3.90
2018-06-28T11:30:53.368Z,3.75
2018-06-28T11:33:22.205Z,3.83
2018-06-28T11:35:51.135Z,3.42
2018-06-28T11:38:19.975Z,3.70
2018-06-28T11:40:48.819Z,3.87
2018-06-28T11:43:17.695Z,3.62
2018-06-28T11:45:46.590Z,3.58
2018-06-28T11:48:15.478Z,3.47
2018-06-28T11:50:44.538Z,3.33
2018-06-28T11:53:13.529Z,3.20
2018-06-28T11:55:42.392Z,3.20
2018-06-28T11:58:11.401Z,3.08
2018-06-28T12:00:40.291Z,2.85
2018-06-28T12:03:09.153Z,3.10
2018-06-28T12:05:38.085Z,2.75
2018-06-28T12:08:06.899Z,2.92
2018-06-28T12:10:35.733Z,3.00
2018-06-28T12:13:04.862Z,3.45
2018-06-28T12:15:34.955Z,3.30
2018-06-28T12:18:03.797Z,3.08
2018-06-28T12:20:32.643Z,2.50
2018-06-28T12:23:01.544Z,2.77
2018-06-28T12:25:30.490Z,3.40
2018-06-28T12:27:59.565Z,2.98
2018-06-28T12:30:28.407Z,2.90
2018-06-28T12:32:57.257Z,2.77
2018-06-28T12:35:26.152Z,2.42
2018-06-28T12:37:55.125Z,3.20
2018-06-28T12:40:23.980Z,3.45
2018-06-28T12:42:52.820Z,2.85
2018-06-28T12:45:21.726Z,2.52
2018-06-28T12:48:16.384Z,2.83
2018-06-28T12:50:45.261Z,2.55
2018-06-28T12:53:14.111Z,2.87
2018-06-28T12:56:25.965Z,3.00
2018-06-28T12:58:57.949Z,2.90
2018-06-28T13:01:27.455Z,2.87
2018-06-28T13:03:56.633Z,2.80
2018-06-28T13:06:25.521Z,2.95
2018-06-28T13:08:55.061Z,2.70
2018-06-28T13:11:24.141Z,2.27
2018-06-28T13:13:53.341Z,2.52
2018-06-28T13:16:23.254Z,2.55
2018-06-28T13:18:52.107Z,2.62
2018-06-28T13:21:20.947Z,2.17
2018-06-28T13:23:49.783Z,2.27
2018-06-28T13:26:19.014Z,2.55
2018-06-28T13:28:48.042Z,2.37
2018-06-28T13:31:16.866Z,2.62
2018-06-28T13:33:45.715Z,2.65
2018-06-28T13:36:14.589Z,2.40
2018-06-28T13:38:43.454Z,2.62
2018-06-28T13:41:12.458Z,2.35
2018-06-28T13:43:41.282Z,2.85
2018-06-28T13:46:10.232Z,2.58
2018-06-28T13:48:39.194Z,2.42
2018-06-28T13:51:08.129Z,2.85
2018-06-28T13:53:37.070Z,2.58
2018-06-28T13:56:06.078Z,2.98
2018-06-28T13:58:35.035Z,2.52
2018-06-28T14:01:03.924Z,2.90
2018-06-28T14:03:32.815Z,2.92
2018-06-28T14:06:01.760Z,2.77
2018-06-28T14:08:30.635Z,2.52
2018-06-28T14:10:59.611Z,2.67
2018-06-28T14:13:28.528Z,2.58
2018-06-28T14:15:57.417Z,3.00
2018-06-28T14:18:26.317Z,3.00
2018-06-28T14:20:55.181Z,2.90
2018-06-28T14:23:24.218Z,2.90
2018-06-28T14:25:53.197Z,2.70
2018-06-28T14:28:21.962Z,3.02
2018-06-28T14:30:50.866Z,2.98
2018-06-28T14:33:19.752Z,2.80
2018-06-28T14:35:48.601Z,3.10
2018-06-28T14:38:17.459Z,2.98
2018-06-28T14:40:46.314Z,2.75
2018-06-28T14:43:15.132Z,2.90
2018-06-28T14:45:45.230Z,3.42
2018-06-28T14:48:14.093Z,3.67
2018-06-28T14:50:42.959Z,4.30
2018-06-28T14:53:11.791Z,3.30
2018-06-28T14:55:40.648Z,3.00
2018-06-28T14:58:09.489Z,2.80
2018-06-28T15:00:38.391Z,2.90
2018-06-28T15:03:07.257Z,2.85
2018-06-28T15:05:36.139Z,2.65
2018-06-28T15:08:05.038Z,2.55
2018-06-28T15:10:33.918Z,2.60
2018-06-28T15:13:02.807Z,2.50
2018-06-28T15:15:31.679Z,2.95
2018-06-28T15:18:00.513Z,2.58
2018-06-28T15:20:29.393Z,2.85
2018-06-28T15:22:58.277Z,2.70
2018-06-28T15:25:27.119Z,2.75
2018-06-28T15:27:56.011Z,2.58
2018-06-28T15:30:28.135Z,2.50
2018-06-28T15:32:57.085Z,2.83
2018-06-28T15:35:25.892Z,2.80
2018-06-28T15:37:54.706Z,2.98
2018-06-28T15:40:23.573Z,2.62
2018-06-28T15:42:52.462Z,2.70
2018-06-28T15:45:21.462Z,3.05
2018-06-28T15:47:50.935Z,2.47
2018-06-28T15:50:19.749Z,2.42
2018-06-28T15:52:56.024Z,2.60
2018-06-28T15:55:24.898Z,2.80
2018-06-28T15:57:53.788Z,2.60
2018-06-28T16:00:22.616Z,2.80
2018-06-28T16:02:51.469Z,2.50
2018-06-28T16:05:20.313Z,2.72
2018-06-28T16:07:49.151Z,2.83
2018-06-28T16:10:18.037Z,4.37
2018-06-28T16:12:47.007Z,3.47
2018-06-28T16:15:15.861Z,3.10
2018-06-28T16:17:44.717Z,2.85
2018-06-28T16:20:13.780Z,3.08
2018-06-28T16:22:42.606Z,3.30
2018-06-28T16:25:11.513Z,4.12
2018-06-28T16:27:40.385Z,2.50
2018-06-28T16:30:09.217Z,2.58
2018-06-28T16:32:38.065Z,2.40
2018-06-28T16:35:06.998Z,2.52
2018-06-28T16:37:35.854Z,2.80
2018-06-28T16:40:04.815Z,3.08
2018-06-28T16:42:33.658Z,2.90
2018-06-28T16:45:02.575Z,3.00
2018-06-28T16:47:31.432Z,2.60
2018-06-28T16:50:00.328Z,2.72
2018-06-28T16:52:29.172Z,2.60
2018-06-28T16:54:57.969Z,2.72
2018-06-28T16:57:26.799Z,2.90
2018-06-28T16:59:55.687Z,2.62
2018-06-28T17:02:24.488Z,2.80
2018-06-28T17:04:53.310Z,2.77
2018-06-28T17:07:22.165Z,2.83
2018-06-28T17:09:51.022Z,3.02
2018-06-28T17:12:19.860Z,3.52
2018-06-28T17:14:48.721Z,2.70
2018-06-28T17:17:17.583Z,2.80
2018-06-28T17:19:46.602Z,2.98
2018-06-28T17:22:16.410Z,2.55
2018-06-28T17:24:45.226Z,2.65
2018-06-28T17:27:14.066Z,2.72
2018-06-28T17:29:42.922Z,2.45
2018-06-28T17:32:11.801Z,2.60
2018-06-28T17:34:40.666Z,2.50
2018-06-28T17:37:09.499Z,3.00
2018-06-28T17:39:38.419Z,2.95
2018-06-28T17:42:07.250Z,2.67
2018-06-28T17:44:39.392Z,2.67
2018-06-28T17:47:08.236Z,2.90
2018-06-28T17:49:37.105Z,2.85
2018-06-28T17:52:05.928Z,2.55
2018-06-28T17:54:34.773Z,2.33
2018-06-28T17:57:03.641Z,2.50
2018-06-28T17:59:32.487Z,2.60
2018-06-28T18:02:01.348Z,2.42
2018-06-28T18:04:30.217Z,2.50
2018-06-28T18:06:59.062Z,2.40
2018-06-28T18:09:27.893Z,2.50
2018-06-28T18:11:56.757Z,2.30
2018-06-28T18:14:25.610Z,2.58
2018-06-28T18:16:54.534Z,2.50
2018-06-28T18:19:23.386Z,2.40
2018-06-28T18:21:52.213Z,2.47
2018-06-28T18:24:21.088Z,2.50
2018-06-28T18:26:50.073Z,2.20
2018-06-28T18:29:18.934Z,2.52
2018-06-28T18:31:47.754Z,2.30
2018-06-28T18:34:16.597Z,2.52
2018-06-28T18:36:45.472Z,2.10
2018-06-28T18:39:14.340Z,2.70
2018-06-28T18:41:43.195Z,2.60
2018-06-28T18:44:12.064Z,2.65
2018-06-28T18:46:40.907Z,2.60
2018-06-28T18:49:09.882Z,2.20
2018-06-28T18:51:38.749Z,2.10
2018-06-28T18:54:07.591Z,2.30
2018-06-28T18:56:36.444Z,2.30
2018-06-28T18:59:05.305Z,2.50
2018-06-28T19:01:34.328Z,2.35
2018-06-28T19:04:03.191Z,2.33
2018-06-28T19:06:32.110Z,2.52
2018-06-28T19:09:00.969Z,2.33
2018-06-28T19:11:29.890Z,2.40
2018-06-28T19:14:16.496Z,2.40
2018-06-28T19:16:58.064Z,2.30
2018-06-28T19:19:26.925Z,2.30
2018-06-28T19:22:13.566Z,2.40
2018-06-28T19:24:42.452Z,2.07
2018-06-28T19:27:11.344Z,2.30
2018-06-28T19:29:58.282Z,2.00
2018-06-28T19:32:34.551Z,2.42
2018-06-28T19:35:03.770Z,2.22
2018-06-28T19:37:51.597Z,2.27
2018-06-28T19:40:38.217Z,2.15
2018-06-28T19:43:08.661Z,2.00
2018-06-28T19:45:37.500Z,2.00
2018-06-28T19:48:06.373Z,1.98
2018-06-28T19:50:53.177Z,1.87
2018-06-28T19:53:22.068Z,1.70
2018-06-28T19:55:50.958Z,1.80
2018-06-28T19:58:19.949Z,1.60
2018-06-28T20:01:06.765Z,1.90
2018-06-28T20:03:53.628Z,1.70
2018-06-28T20:06:22.472Z,1.60
2018-06-28T20:08:51.305Z,1.97
2018-06-28T20:11:20.252Z,1.70
2018-06-28T20:14:07.009Z,1.80
2018-06-28T20:16:53.438Z,1.40
2018-06-28T20:19:39.754Z,1.50
2018-06-28T20:22:08.652Z,1.67
2018-06-28T20:24:37.571Z,1.60
2018-06-28T20:27:24.254Z,1.53
2018-06-28T20:30:10.993Z,1.60
2018-06-28T20:32:57.668Z,1.50
2018-06-28T20:35:34.301Z,1.50
2018-06-28T20:38:03.131Z,1.60
2018-06-28T20:40:31.992Z,1.40
2018-06-28T20:43:00.819Z,1.80
2018-06-28T20:45:29.659Z,1.70
2018-06-28T20:47:58.507Z,1.70
2018-06-28T20:50:27.363Z,1.60
2018-06-28T20:52:56.233Z,1.63
2018-06-28T20:55:25.093Z,1.40
2018-06-28T20:57:53.981Z,1.60
2018-06-28T21:00:22.861Z,1.60
2018-06-28T21:02:51.730Z,1.70
2018-06-28T21:05:20.641Z,1.70
2018-06-28T21:07:49.489Z,1.67
2018-06-28T21:10:18.361Z,1.53
2018-06-28T21:12:47.189Z,1.63
2018-06-28T21:15:16.079Z,1.70
2018-06-28T21:17:44.954Z,1.70
2018-06-28T21:20:13.980Z,1.87
2018-06-28T21:22:42.854Z,1.57
2018-06-28T21:25:11.821Z,1.60
2018-06-28T21:27:40.694Z,1.70
2018-06-28T21:30:09.555Z,1.53
2018-06-28T21:32:38.398Z,1.80
2018-06-28T21:35:07.439Z,1.60
2018-06-28T21:37:36.334Z,1.63
2018-06-28T21:40:05.377Z,1.67
2018-06-28T21:42:37.363Z,1.77
2018-06-28T21:45:06.219Z,1.80
2018-06-28T21:47:35.117Z,1.53
2018-06-28T21:50:04.017Z,1.70
2018-06-28T21:52:32.845Z,1.67
2018-06-28T21:55:01.700Z,1.60
2018-06-28T21:57:30.518Z,1.57
2018-06-28T21:59:59.415Z,1.80
2018-06-28T22:02:28.275Z,2.03
2018-06-28T22:04:57.270Z,2.27
2018-06-28T22:07:26.128Z,2.53
2018-06-28T22:09:57.699Z,2.70
2018-06-28T22:12:26.579Z,2.60
2018-06-28T22:14:55.421Z,2.77
2018-06-28T22:17:24.287Z,2.77
2018-06-28T22:19:53.199Z,2.87
2018-06-28T22:22:21.963Z,2.87
2018-06-28T22:24:50.829Z,2.93
2018-06-28T22:27:19.685Z,2.90
2018-06-28T22:29:48.514Z,2.83
2018-06-28T22:32:17.382Z,3.20
2018-06-28T22:34:46.242Z,2.90
2018-06-28T22:37:15.077Z,3.50
2018-06-28T22:39:43.951Z,3.20
2018-06-28T22:42:12.805Z,3.33
2018-06-28T22:44:41.674Z,3.40
2018-06-28T22:48:08.602Z,3.53
2018-06-28T22:50:37.489Z,3.00
2018-06-28T22:53:06.699Z,3.17
2018-06-28T22:55:35.555Z,3.17
2018-06-28T22:58:04.399Z,2.80
2018-06-28T23:00:33.257Z,2.87
2018-06-28T23:03:02.129Z,3.23
2018-06-28T23:05:30.984Z,2.80
2018-06-28T23:07:59.844Z,2.90
2018-06-28T23:10:28.723Z,2.70
2018-06-28T23:12:57.610Z,2.53
2018-06-28T23:15:26.460Z,2.90
2018-06-28T23:17:55.324Z,2.63
2018-06-28T23:20:24.213Z,2.50
2018-06-28T23:22:53.366Z,2.73
2018-06-28T23:25:22.573Z,2.50
2018-06-28T23:27:51.964Z,2.70
2018-06-28T23:30:21.065Z,2.43
2018-06-28T23:32:49.977Z,2.77
2018-06-28T23:35:18.810Z,2.27
2018-06-28T23:37:47.644Z,2.43
2018-06-28T23:40:16.507Z,2.87
2018-06-28T23:42:45.334Z,2.73
2018-06-28T23:45:14.181Z,2.33
2018-06-28T23:47:43.075Z,2.40
2018-06-28T23:50:11.894Z,2.23
2018-06-28T23:52:47.110Z,2.60
2018-06-28T23:55:15.968Z,2.53
2018-06-28T23:57:44.785Z,2.43
